Andrews A F B, District of Columbia
Current Conditions -  °F | °C
As of 10:08 PM on Monday 26 Jan 2015 (Local Time) from KADW Reporting Station
Light Snow Light Snow  
Wind Chill: 20°   Ceiling: 900
Heat Index: 28°   Visibility: 5mi
Dew Point: 27°   Wind: 9mph
Humidity: 93%   Direction: 330°NNW
Pressure: 29.73"   Gusts: NA
Location:  38.8022°N, 76.8857°W
Report Text: KADW 270308Z AUTO 33008KT 5SM -SN BR BKN009 OVC014 M02/M03 A2973 RMK AO2 CIG 009V015 BKN V SCT $
Loading
Personal Weather Stations






























Interactive Weather Map New forecast layout! Learn more

10-Day Weather Forecast

Advertisements
Track Severe Weather on mobile